Time;durP1;ratioP1;P1;durP2;ratioP2;P2;SDS_P1;SDS_P2;PMS_P1;PMS_P2;Temp;Humidity;BMP_temperature;BMP_pressure;BME280_temperature;BME280_humidity;BME280_pressure;Samples;Min_cycle;Max_cycle;Signal;HPM_P1;HPM_P2
2021/06/10 00:00:31;;;;;;;;;;;;;;;;;;1483230;40;7191;-64
2021/06/10 00:01:34;;;;;;;;;;;;;;;;;;1483228;40;7214;-67
2021/06/10 00:02:36;;;;;;;;;;;;;;;;;;1483219;40;7195;-64
2021/06/10 00:03:39;;;;;;;;;;;;;;;;;;1483549;40;7691;-64
2021/06/10 00:04:41;;;;;;;;;;;;;;;;;;1483253;40;7118;-65
2021/06/10 00:05:44;;;;;;;;;;;;;;;;;;1483213;40;7039;-64
2021/06/10 00:06:46;;;;;;;;;;;;;;;;;;1483239;40;7510;-67
2021/06/10 00:07:49;;;;;;;;;;;;;;;;;;1483196;40;7067;-64
2021/06/10 00:08:52;;;;;;;;;;;;;;;;;;1483312;40;7000;-65
2021/06/10 00:09:54;;;;;;;;;;;;;;;;;;1483095;40;7036;-66
2021/06/10 00:10:57;;;;;;;;;;;;;;;;;;1483309;40;7008;-64
2021/06/10 00:11:59;;;;;;;;;;;;;;;;;;1483230;40;7003;-66
2021/06/10 00:13:02;;;;;;;;;;;;;;;;;;1486976;40;7046;-67
2021/06/10 00:14:04;;;;;;;;;;;;;;;;;;1486612;40;7007;-64
2021/06/10 00:15:08;;;;;;;;;;;;;;;;;;1483086;40;7867;-62
2021/06/10 00:16:11;;;;;;;;;;;;;;;;;;1483143;40;7011;-64
2021/06/10 00:17:14;;;;;;;;;;;;;;;;;;1482995;40;7007;-62
2021/06/10 00:18:17;;;;;;;;;;;;;;;;;;1480967;40;8136;-65
2021/06/10 00:19:20;;;;;;;;;;;;;;;;;;1480263;40;7244;-66
2021/06/10 00:20:25;;;;;;;;;;;;;;;;;;1478890;40;7043;-65
2021/06/10 00:21:27;;;;;;;;;;;;;;;;;;1479591;40;7182;-65
2021/06/10 00:22:29;;;;;;;;;;;;;;;;;;1481306;40;7719;-62
2021/06/10 00:23:32;;;;;;;;;;;;;;;;;;1480905;40;7059;-68
2021/06/10 00:24:34;;;;;;;;;;;;;;;;;;1479543;40;7008;-65
2021/06/10 00:25:37;;;;;;;;;;;;;;;;;;1482703;40;7112;-65
2021/06/10 00:26:40;;;;;;;;;;;;;;;;;;1482415;40;7912;-67
2021/06/10 00:27:45;;;;;;;;;;;;;;;;;;1478275;40;7008;-64
2021/06/10 00:28:47;;;;;;;;;;;;;;;;;;1478387;40;7230;-66
2021/06/10 00:29:50;;;;;;;;;;;;;;;;;;1478947;40;6999;-65
2021/06/10 00:30:53;;;;;;;;;;;;;;;;;;1478351;40;7996;-63
2021/06/10 00:31:55;;;;;;;;;;;;;;;;;;1478745;40;7027;-68
2021/06/10 00:32:59;;;;;;;;;;;;;;;;;;1478537;40;7039;-65
2021/06/10 00:34:01;;;;;;;;;;;;;;;;;;1482737;40;7080;-67
2021/06/10 00:35:05;;;;;;;;;;;;;;;;;;1483088;40;7031;-62
2021/06/10 00:36:08;;;;;;;;;;;;;;;;;;1483091;40;7117;-63
2021/06/10 00:37:11;;;;;;;;;;;;;;;;;;1482743;40;7007;-63
2021/06/10 00:38:14;;;;;;;;;;;;;;;;;;1483004;40;8841;-62
2021/06/10 00:39:16;;;;;;;;;;;;;;;;;;1483136;40;6995;-65
2021/06/10 00:40:18;;;;;;;;;;;;;;;;;;1483098;40;7972;-66
2021/06/10 00:41:21;;;;;;;;;;;;;;;;;;1483257;40;6999;-65
2021/06/10 00:42:23;;;;;;;;;;;;;;;;;;1483137;40;7109;-64
2021/06/10 00:43:26;;;;;;;;;;;;;;;;;;1483066;40;7031;-64
2021/06/10 00:44:28;;;;;;;;;;;;;;;;;;1483072;40;7000;-67
2021/06/10 00:45:31;;;;;;;;;;;;;;;;;;1483197;40;7000;-65
2021/06/10 00:46:34;;;;;;;;;;;;;;;;;;1483200;40;7039;-63
2021/06/10 00:47:37;;;;;;;;;;;;;;;;;;1478953;40;7008;-63
2021/06/10 00:48:39;;;;;;;;;;;;;;;;;;1479088;40;7190;-65
2021/06/10 00:49:43;;;;;;;;;;;;;;;;;;1479000;40;7000;-68
2021/06/10 00:50:46;;;;;;;;;;;;;;;;;;1480490;40;7887;-66
2021/06/10 00:51:49;;;;;;;;;;;;;;;;;;1483065;40;7011;-64
2021/06/10 00:52:52;;;;;;;;;;;;;;;;;;1483459;40;7052;-66
2021/06/10 00:53:56;;;;;;;;;;;;;;;;;;1483273;40;7003;-63
2021/06/10 00:54:58;;;;;;;;;;;;;;;;;;1483141;40;7008;-63
2021/06/10 00:56:04;;;;;;;;;;;;;;;;;;1482994;40;7008;-65
2021/06/10 00:57:06;;;;;;;;;;;;;;;;;;1483347;40;7049;-64
2021/06/10 00:58:09;;;;;;;;;;;;;;;;;;1483094;40;7897;-63
2021/06/10 00:59:11;;;;;;;;;;;;;;;;;;1483140;40;7899;-66
2021/06/10 01:00:15;;;;;;;;;;;;;;;;;;1486644;40;7124;-67
2021/06/10 01:01:17;;;;;;;;;;;;;;;;;;1486452;40;7128;-64
2021/06/10 01:02:20;;;;;;;;;;;;;;;;;;1482896;40;7046;-64
2021/06/10 01:03:23;;;;;;;;;;;;;;;;;;1483258;40;7051;-68
2021/06/10 01:04:26;;;;;;;;;;;;;;;;;;1483089;40;7013;-66
2021/06/10 01:05:28;;;;;;;;;;;;;;;;;;1483316;40;7023;-64
2021/06/10 01:06:45;;;;;;;;;;;;;;;;;;1480460;40;7004;-64
2021/06/10 01:08:03;;;;;;;;;;;;;;;;;;1478796;40;7012;-66
2021/06/10 01:09:12;;;;;;;;;;;;;;;;;;1479311;40;7044;-66
2021/06/10 01:10:29;;;;;;;;;;;;;;;;;;1478901;40;7015;-67
2021/06/10 01:11:37;;;;;;;;;;;;;;;;;;1478695;40;8966;-66
2021/06/10 01:12:40;;;;;;;;;;;;;;;;;;1479028;40;7278;-61
2021/06/10 01:13:45;;;;;;;;;;;;;;;;;;1478966;40;7905;-65
2021/06/10 01:14:54;;;;;;;;;;;;;;;;;;1478820;40;8431;-62
2021/06/10 01:15:59;;;;;;;;;;;;;;;;;;1478913;40;7919;-65
2021/06/10 01:17:04;;;;;;;;;;;;;;;;;;1478647;40;7879;-63
2021/06/10 01:18:07;;;;;;;;;;;;;;;;;;1482315;40;7966;-62
2021/06/10 01:19:15;;;;;;;;;;;;;;;;;;1480388;40;7051;-64
2021/06/10 01:20:21;;;;;;;;;;;;;;;;;;1480941;40;7030;-64
2021/06/10 01:21:24;;;;;;;;;;;;;;;;;;1479874;40;7019;-62
2021/06/10 01:22:26;;;;;;;;;;;;;;;;;;1482705;40;6999;-65
2021/06/10 01:23:52;;;;;;;;;;;;;;;;;;1478960;40;7008;-63
2021/06/10 01:24:57;;;;;;;;;;;;;;;;;;1478815;40;7007;-64
2021/06/10 01:26:13;;;;;;;;;;;;;;;;;;1478510;40;7043;-63
2021/06/10 01:27:19;;;;;;;;;;;;;;;;;;1478324;40;7078;-67
2021/06/10 01:28:26;;;;;;;;;;;;;;;;;;1478689;40;7036;-67
2021/06/10 01:29:29;;;;;;;;;;;;;;;;;;1478453;40;7895;-63
2021/06/10 01:30:36;;;;;;;;;;;;;;;;;;1478580;40;7008;-65
2021/06/10 01:31:40;;;;;;;;;;;;;;;;;;1478466;40;6999;-63
2021/06/10 01:32:47;;;;;;;;;;;;;;;;;;1478781;40;7035;-65
2021/06/10 01:33:52;;;;;;;;;;;;;;;;;;1478494;40;7035;-65
2021/06/10 01:34:56;;;;;;;;;;;;;;;;;;1478869;40;7043;-68
2021/06/10 01:36:02;;;;;;;;;;;;;;;;;;1478561;40;7003;-64
2021/06/10 01:37:05;;;;;;;;;;;;;;;;;;1478056;40;7226;-66
2021/06/10 01:38:09;;;;;;;;;;;;;;;;;;1478256;40;6995;-64
2021/06/10 01:39:15;;;;;;;;;;;;;;;;;;1478825;40;7194;-65
2021/06/10 01:40:21;;;;;;;;;;;;;;;;;;1479025;40;7027;-62
2021/06/10 01:41:24;;;;;;;;;;;;;;;;;;1479123;40;7935;-66
2021/06/10 01:42:29;;;;;;;;;;;;;;;;;;1478836;40;7007;-65
2021/06/10 01:43:35;;;;;;;;;;;;;;;;;;1478768;40;7003;-64
2021/06/10 01:44:38;;;;;;;;;;;;;;;;;;1478900;40;7996;-68
2021/06/10 01:45:41;;;;;;;;;;;;;;;;;;1478876;40;7003;-63
2021/06/10 01:46:43;;;;;;;;;;;;;;;;;;1478964;40;7955;-65
2021/06/10 01:47:47;;;;;;;;;;;;;;;;;;1478360;40;7051;-63
2021/06/10 01:48:57;;;;;;;;;;;;;;;;;;1478746;40;7052;-66
2021/06/10 01:50:01;;;;;;;;;;;;;;;;;;1478856;40;7206;-63
2021/06/10 01:51:04;;;;;;;;;;;;;;;;;;1485337;40;7112;-64
2021/06/10 01:52:07;;;;;;;;;;;;;;;;;;1486744;40;7632;-65
2021/06/10 01:53:14;;;;;;;;;;;;;;;;;;1483294;40;7039;-65
2021/06/10 01:54:16;;;;;;;;;;;;;;;;;;1478970;40;7026;-63
2021/06/10 01:55:22;;;;;;;;;;;;;;;;;;1479083;40;7191;-65
2021/06/10 01:56:25;;;;;;;;;;;;;;;;;;1479036;40;7316;-66
2021/06/10 01:57:30;;;;;;;;;;;;;;;;;;1482898;40;7114;-65
2021/06/10 01:58:34;;;;;;;;;;;;;;;;;;1483258;40;7039;-66
2021/06/10 01:59:36;;;;;;;;;;;;;;;;;;1483009;40;7023;-62
2021/06/10 02:00:40;;;;;;;;;;;;;;;;;;1482760;40;7035;-63
2021/06/10 02:01:45;;;;;;;;;;;;;;;;;;1482809;40;7012;-62
2021/06/10 02:02:47;;;;;;;;;;;;;;;;;;1482853;40;7000;-66
2021/06/10 02:03:51;;;;;;;;;;;;;;;;;;1482985;40;7942;-63
2021/06/10 02:04:56;;;;;;;;;;;;;;;;;;1482904;40;7896;-63
2021/06/10 02:06:00;;;;;;;;;;;;;;;;;;1482904;40;7111;-65
2021/06/10 02:07:03;;;;;;;;;;;;;;;;;;1483184;40;7130;-67
2021/06/10 02:08:09;;;;;;;;;;;;;;;;;;1482886;40;7007;-66
2021/06/10 02:09:13;;;;;;;;;;;;;;;;;;1482576;40;7917;-65
2021/06/10 02:10:23;;;;;;;;;;;;;;;;;;1482825;40;7003;-65
2021/06/10 02:11:26;;;;;;;;;;;;;;;;;;1482867;40;7942;-66
2021/06/10 02:12:28;;;;;;;;;;;;;;;;;;1482856;40;7007;-66
2021/06/10 02:13:33;;;;;;;;;;;;;;;;;;1482834;40;7016;-66
2021/06/10 02:14:35;;;;;;;;;;;;;;;;;;1482915;40;7062;-68
2021/06/10 02:15:40;;;;;;;;;;;;;;;;;;1482852;40;7210;-65
2021/06/10 02:16:44;;;;;;;;;;;;;;;;;;1483189;40;7713;-64
2021/06/10 02:17:48;;;;;;;;;;;;;;;;;;1480382;40;7113;-65
2021/06/10 02:18:51;;;;;;;;;;;;;;;;;;1477982;40;7870;-62
2021/06/10 02:19:56;;;;;;;;;;;;;;;;;;1478351;40;7028;-66
2021/06/10 02:20:59;;;;;;;;;;;;;;;;;;1479746;40;7035;-65
2021/06/10 02:22:02;;;;;;;;;;;;;;;;;;1481783;40;7031;-66
2021/06/10 02:23:05;;;;;;;;;;;;;;;;;;1480446;40;7073;-64
2021/06/10 02:24:12;;;;;;;;;;;;;;;;;;1478342;40;7059;-66
2021/06/10 02:25:14;;;;;;;;;;;;;;;;;;1479860;40;7919;-63
2021/06/10 02:26:17;;;;;;;;;;;;;;;;;;1478322;40;6999;-63
2021/06/10 02:27:20;;;;;;;;;;;;;;;;;;1478490;40;7016;-65
2021/06/10 02:28:22;;;;;;;;;;;;;;;;;;1478345;40;7031;-65
2021/06/10 02:29:25;;;;;;;;;;;;;;;;;;1478529;40;7012;-67
2021/06/10 02:30:28;;;;;;;;;;;;;;;;;;1478263;40;8007;-66
2021/06/10 02:31:30;;;;;;;;;;;;;;;;;;1478234;40;7895;-63
2021/06/10 02:32:33;;;;;;;;;;;;;;;;;;1478475;40;6999;-64
2021/06/10 02:33:37;;;;;;;;;;;;;;;;;;1478555;40;7948;-64
2021/06/10 02:34:39;;;;;;;;;;;;;;;;;;1478918;40;7919;-66
2021/06/10 02:35:42;;;;;;;;;;;;;;;;;;1478974;40;7003;-65
2021/06/10 02:36:46;;;;;;;;;;;;;;;;;;1478081;40;7016;-63
2021/06/10 02:37:50;;;;;;;;;;;;;;;;;;1477987;40;7202;-67
2021/06/10 02:38:55;;;;;;;;;;;;;;;;;;1479121;40;7922;-65
2021/06/10 02:40:00;;;;;;;;;;;;;;;;;;1478906;40;7118;-63
2021/06/10 02:41:04;;;;;;;;;;;;;;;;;;1479212;40;7218;-63
2021/06/10 02:42:09;;;;;;;;;;;;;;;;;;1478414;40;7444;-65
2021/06/10 02:43:13;;;;;;;;;;;;;;;;;;1478807;40;7131;-65
2021/06/10 02:44:15;;;;;;;;;;;;;;;;;;1478644;40;7936;-63
2021/06/10 02:45:18;;;;;;;;;;;;;;;;;;1478908;40;7974;-65
2021/06/10 02:46:21;;;;;;;;;;;;;;;;;;1478721;40;7004;-66
2021/06/10 02:47:26;;;;;;;;;;;;;;;;;;1485650;39;7039;-64
2021/06/10 02:48:30;;;;;;;;;;;;;;;;;;1486861;40;7890;-65
2021/06/10 02:49:33;;;;;;;;;;;;;;;;;;1483468;40;7120;-64
2021/06/10 02:50:39;;;;;;;;;;;;;;;;;;1482182;40;7942;-63
2021/06/10 02:51:41;;;;;;;;;;;;;;;;;;1479494;40;7894;-66
2021/06/10 02:52:45;;;;;;;;;;;;;;;;;;1479476;40;7892;-64
2021/06/10 02:53:49;;;;;;;;;;;;;;;;;;1479407;40;6996;-62
2021/06/10 02:54:54;;;;;;;;;;;;;;;;;;1479636;40;7000;-64
2021/06/10 02:55:59;;;;;;;;;;;;;;;;;;1479601;40;7116;-65
2021/06/10 02:57:03;;;;;;;;;;;;;;;;;;1479341;40;7109;-69
2021/06/10 02:58:05;;;;;;;;;;;;;;;;;;1479032;40;7035;-63
2021/06/10 02:59:09;;;;;;;;;;;;;;;;;;1479198;40;7012;-62
2021/06/10 03:00:13;;;;;;;;;;;;;;;;;;1479277;40;7876;-66
2021/06/10 03:01:16;;;;;;;;;;;;;;;;;;1479426;40;7215;-64
2021/06/10 03:02:20;;;;;;;;;;;;;;;;;;1479315;40;7119;-67
2021/06/10 03:03:23;;;;;;;;;;;;;;;;;;1479521;40;7044;-65
2021/06/10 03:04:27;;;;;;;;;;;;;;;;;;1478972;40;7003;-65
2021/06/10 03:05:31;;;;;;;;;;;;;;;;;;1478999;40;7944;-64
2021/06/10 03:06:34;;;;;;;;;;;;;;;;;;1479401;40;7016;-66
2021/06/10 03:07:37;;;;;;;;;;;;;;;;;;1479180;40;7031;-64
2021/06/10 03:08:40;;;;;;;;;;;;;;;;;;1479155;40;7082;-67
2021/06/10 03:09:44;;;;;;;;;;;;;;;;;;1479182;40;6999;-64
2021/06/10 03:10:47;;;;;;;;;;;;;;;;;;1479328;40;7117;-63
2021/06/10 03:11:53;;;;;;;;;;;;;;;;;;1479287;40;7012;-65
2021/06/10 03:12:57;;;;;;;;;;;;;;;;;;1478996;40;7024;-63
2021/06/10 03:14:01;;;;;;;;;;;;;;;;;;1479049;40;7048;-63
2021/06/10 03:15:05;;;;;;;;;;;;;;;;;;1479261;40;7016;-67
2021/06/10 03:16:10;;;;;;;;;;;;;;;;;;1479197;40;7035;-64
2021/06/10 03:17:15;;;;;;;;;;;;;;;;;;1479198;40;7012;-67
2021/06/10 03:18:18;;;;;;;;;;;;;;;;;;1482998;40;7227;-67
2021/06/10 03:19:21;;;;;;;;;;;;;;;;;;1479937;40;7868;-63
2021/06/10 03:20:24;;;;;;;;;;;;;;;;;;1478705;40;7000;-63
2021/06/10 03:21:28;;;;;;;;;;;;;;;;;;1480057;40;7521;-62
2021/06/10 03:22:31;;;;;;;;;;;;;;;;;;1483056;40;7961;-65
2021/06/10 03:23:33;;;;;;;;;;;;;;;;;;1482265;40;6999;-65
2021/06/10 03:24:37;;;;;;;;;;;;;;;;;;1483180;40;7052;-64
2021/06/10 03:25:40;;;;;;;;;;;;;;;;;;1483067;40;7081;-65
2021/06/10 03:26:44;;;;;;;;;;;;;;;;;;1482907;40;7427;-67
2021/06/10 03:27:47;;;;;;;;;;;;;;;;;;1482951;40;8062;-65
2021/06/10 03:28:51;;;;;;;;;;;;;;;;;;1482834;40;6999;-64
2021/06/10 03:29:53;;;;;;;;;;;;;;;;;;1482786;40;7007;-64
2021/06/10 03:30:56;;;;;;;;;;;;;;;;;;1482728;40;7999;-64
2021/06/10 03:31:59;;;;;;;;;;;;;;;;;;1482936;40;7007;-65
2021/06/10 03:33:05;;;;;;;;;;;;;;;;;;1483033;40;7904;-65
2021/06/10 03:34:09;;;;;;;;;;;;;;;;;;1483277;40;7012;-62
2021/06/10 03:35:12;;;;;;;;;;;;;;;;;;1483340;40;7031;-64
2021/06/10 03:36:15;;;;;;;;;;;;;;;;;;1483259;40;7019;-64
2021/06/10 03:37:18;;;;;;;;;;;;;;;;;;1483016;40;7003;-65
2021/06/10 03:38:21;;;;;;;;;;;;;;;;;;1483455;40;7124;-63
2021/06/10 03:39:25;;;;;;;;;;;;;;;;;;1478880;40;7975;-65
2021/06/10 03:40:29;;;;;;;;;;;;;;;;;;1479037;40;7012;-67
2021/06/10 03:41:33;;;;;;;;;;;;;;;;;;1479284;40;7012;-64
2021/06/10 03:42:35;;;;;;;;;;;;;;;;;;1479138;40;7036;-62
2021/06/10 03:43:40;;;;;;;;;;;;;;;;;;1479524;40;7035;-65
2021/06/10 03:44:42;;;;;;;;;;;;;;;;;;1479211;40;7000;-65
2021/06/10 03:45:45;;;;;;;;;;;;;;;;;;1479274;40;7860;-64
2021/06/10 03:48:51;;;;;;;;;;;;;;;;;;1483209;40;6991;-64
2021/06/10 03:49:54;;;;;;;;;;;;;;;;;;1483525;40;7003;-63
2021/06/10 03:50:56;;;;;;;;;;;;;;;;;;1480717;40;8871;-64
2021/06/10 03:51:59;;;;;;;;;;;;;;;;;;1479591;40;7007;-66
2021/06/10 03:53:01;;;;;;;;;;;;;;;;;;1481591;40;7012;-63
2021/06/10 03:54:04;;;;;;;;;;;;;;;;;;1479288;40;7203;-66
2021/06/10 03:55:08;;;;;;;;;;;;;;;;;;1479048;40;7007;-65
2021/06/10 03:56:10;;;;;;;;;;;;;;;;;;1479271;40;7056;-63
2021/06/10 03:57:13;;;;;;;;;;;;;;;;;;1479042;40;7257;-65
2021/06/10 03:58:15;;;;;;;;;;;;;;;;;;1479228;40;7962;-65
2021/06/10 03:59:17;;;;;;;;;;;;;;;;;;1479015;40;7008;-67
2021/06/10 04:00:20;;;;;;;;;;;;;;;;;;1479422;40;7034;-67
2021/06/10 04:01:22;;;;;;;;;;;;;;;;;;1479227;40;6999;-66
2021/06/10 04:02:26;;;;;;;;;;;;;;;;;;1479065;40;7007;-66
2021/06/10 04:03:29;;;;;;;;;;;;;;;;;;1479082;40;7075;-66
2021/06/10 04:04:31;;;;;;;;;;;;;;;;;;1479059;40;7008;-63
2021/06/10 04:05:35;;;;;;;;;;;;;;;;;;1479068;40;7031;-67
2021/06/10 04:06:38;;;;;;;;;;;;;;;;;;1479306;40;7900;-66
2021/06/10 04:07:40;;;;;;;;;;;;;;;;;;1478932;40;7007;-63
2021/06/10 04:08:43;;;;;;;;;;;;;;;;;;1479030;40;7035;-65
2021/06/10 04:09:45;;;;;;;;;;;;;;;;;;1482421;40;7943;-63
2021/06/10 04:10:48;;;;;;;;;;;;;;;;;;1482551;40;7007;-67
2021/06/10 04:11:50;;;;;;;;;;;;;;;;;;1479090;40;7035;-64
2021/06/10 04:12:53;;;;;;;;;;;;;;;;;;1479521;40;7921;-66
2021/06/10 04:13:55;;;;;;;;;;;;;;;;;;1479120;40;7007;-65
2021/06/10 04:14:58;;;;;;;;;;;;;;;;;;1479131;40;7003;-68
2021/06/10 04:16:00;;;;;;;;;;;;;;;;;;1479056;40;7004;-62
2021/06/10 04:17:03;;;;;;;;;;;;;;;;;;1479075;40;7995;-63
2021/06/10 04:18:06;;;;;;;;;;;;;;;;;;1482714;40;6999;-66
2021/06/10 04:19:09;;;;;;;;;;;;;;;;;;1481006;40;7983;-65
2021/06/10 04:20:12;;;;;;;;;;;;;;;;;;1478747;40;7004;-65
2021/06/10 04:21:15;;;;;;;;;;;;;;;;;;1479022;40;7007;-65
2021/06/10 04:22:17;;;;;;;;;;;;;;;;;;1482993;40;7007;-64
2021/06/10 04:23:20;;;;;;;;;;;;;;;;;;1480326;40;7007;-66
2021/06/10 04:24:22;;;;;;;;;;;;;;;;;;1478962;40;7007;-64
2021/06/10 04:25:25;;;;;;;;;;;;;;;;;;1478957;40;7062;-66
2021/06/10 04:26:28;;;;;;;;;;;;;;;;;;1478741;40;7007;-64
2021/06/10 04:27:30;;;;;;;;;;;;;;;;;;1480786;40;7901;-64
2021/06/10 04:28:33;;;;;;;;;;;;;;;;;;1482630;40;7003;-66
2021/06/10 04:29:35;;;;;;;;;;;;;;;;;;1478297;40;7120;-66
2021/06/10 04:30:38;;;;;;;;;;;;;;;;;;1479102;40;8014;-69
2021/06/10 04:31:42;;;;;;;;;;;;;;;;;;1479189;40;6999;-64
2021/06/10 04:32:46;;;;;;;;;;;;;;;;;;1478916;40;7957;-65
2021/06/10 04:33:49;;;;;;;;;;;;;;;;;;1479286;40;7007;-63
2021/06/10 04:34:52;;;;;;;;;;;;;;;;;;1479213;40;7034;-66
2021/06/10 04:35:54;;;;;;;;;;;;;;;;;;1479440;40;7000;-65
2021/06/10 04:36:57;;;;;;;;;;;;;;;;;;1478635;40;7109;-63
2021/06/10 04:37:59;;;;;;;;;;;;;;;;;;1478384;40;7043;-64
2021/06/10 04:39:03;;;;;;;;;;;;;;;;;;1478677;40;7034;-62
2021/06/10 04:40:06;;;;;;;;;;;;;;;;;;1478863;40;7008;-65
2021/06/10 04:41:09;;;;;;;;;;;;;;;;;;1478755;40;7004;-65
2021/06/10 04:42:12;;;;;;;;;;;;;;;;;;1479313;40;7119;-64
2021/06/10 04:43:14;;;;;;;;;;;;;;;;;;1478418;40;6999;-63
2021/06/10 04:44:17;;;;;;;;;;;;;;;;;;1478773;40;7008;-63
2021/06/10 04:45:19;;;;;;;;;;;;;;;;;;1479345;40;7039;-66
2021/06/10 04:46:22;;;;;;;;;;;;;;;;;;1479335;40;7000;-64
2021/06/10 04:47:24;;;;;;;;;;;;;;;;;;1481837;40;7124;-66
2021/06/10 04:48:27;;;;;;;;;;;;;;;;;;1479053;40;7829;-64
2021/06/10 04:49:33;;;;;;;;;;;;;;;;;;1479243;40;7007;-67
2021/06/10 04:50:36;;;;;;;;;;;;;;;;;;1480222;40;6999;-65
2021/06/10 04:51:38;;;;;;;;;;;;;;;;;;1483057;40;7048;-65
2021/06/10 04:52:41;;;;;;;;;;;;;;;;;;1483314;40;7020;-67
2021/06/10 04:53:46;;;;;;;;;;;;;;;;;;1483030;40;7218;-65
2021/06/10 04:54:48;;;;;;;;;;;;;;;;;;1483287;40;7007;-65
2021/06/10 04:55:51;;;;;;;;;;;;;;;;;;1483037;40;7709;-63
2021/06/10 04:56:54;;;;;;;;;;;;;;;;;;1483312;40;7871;-64
2021/06/10 04:57:56;;;;;;;;;;;;;;;;;;1483140;40;7007;-63
2021/06/10 04:58:59;;;;;;;;;;;;;;;;;;1483313;40;7008;-65
2021/06/10 05:00:02;;;;;;;;;;;;;;;;;;1483057;40;7039;-66
2021/06/10 05:01:05;;;;;;;;;;;;;;;;;;1483392;40;7038;-65
2021/06/10 05:02:07;;;;;;;;;;;;;;;;;;1483039;40;7008;-66
2021/06/10 05:03:10;;;;;;;;;;;;;;;;;;1483195;40;7003;-64
2021/06/10 05:04:12;;;;;;;;;;;;;;;;;;1482833;40;7900;-64
2021/06/10 05:05:15;;;;;;;;;;;;;;;;;;1483587;40;7039;-63
2021/06/10 05:06:17;;;;;;;;;;;;;;;;;;1483511;40;7031;-66
2021/06/10 05:07:20;;;;;;;;;;;;;;;;;;1483567;40;7138;-67
2021/06/10 05:08:22;;;;;;;;;;;;;;;;;;1478483;40;7007;-63
2021/06/10 05:09:24;;;;;;;;;;;;;;;;;;1479303;40;7008;-63
2021/06/10 05:10:27;;;;;;;;;;;;;;;;;;1478867;40;7008;-65
2021/06/10 05:11:29;;;;;;;;;;;;;;;;;;1479485;40;7918;-63
2021/06/10 05:12:32;;;;;;;;;;;;;;;;;;1478948;40;7007;-66
2021/06/10 05:13:35;;;;;;;;;;;;;;;;;;1478869;40;7956;-63
2021/06/10 05:14:37;;;;;;;;;;;;;;;;;;1478935;40;7012;-63
2021/06/10 05:15:40;;;;;;;;;;;;;;;;;;1479093;40;8836;-66
2021/06/10 05:16:44;;;;;;;;;;;;;;;;;;1478904;40;7035;-64
2021/06/10 05:17:47;;;;;;;;;;;;;;;;;;1480911;40;7016;-65
2021/06/10 05:18:50;;;;;;;;;;;;;;;;;;1482258;40;7888;-65
2021/06/10 05:19:53;;;;;;;;;;;;;;;;;;1478867;40;7195;-66
2021/06/10 05:20:55;;;;;;;;;;;;;;;;;;1478467;40;7008;-63
2021/06/10 05:21:57;;;;;;;;;;;;;;;;;;1482305;40;7000;-65
2021/06/10 05:23:00;;;;;;;;;;;;;;;;;;1480977;40;6983;-66
2021/06/10 05:24:03;;;;;;;;;;;;;;;;;;1479874;40;7039;-63
2021/06/10 05:25:06;;;;;;;;;;;;;;;;;;1482719;40;7211;-65
2021/06/10 05:26:08;;;;;;;;;;;;;;;;;;1483072;40;6999;-63
2021/06/10 05:27:10;;;;;;;;;;;;;;;;;;1482604;40;7954;-66
2021/06/10 05:28:13;;;;;;;;;;;;;;;;;;1482797;40;7150;-66
2021/06/10 05:29:15;;;;;;;;;;;;;;;;;;1482886;40;7149;-66
2021/06/10 05:30:18;;;;;;;;;;;;;;;;;;1482755;40;7003;-64
2021/06/10 05:31:21;;;;;;;;;;;;;;;;;;1483036;40;7016;-64
2021/06/10 05:32:24;;;;;;;;;;;;;;;;;;1483187;40;7007;-64
2021/06/10 05:33:26;;;;;;;;;;;;;;;;;;1483142;40;7020;-68
2021/06/10 05:34:29;;;;;;;;;;;;;;;;;;1483561;40;7035;-64
2021/06/10 05:35:31;;;;;;;;;;;;;;;;;;1483454;40;7114;-65
2021/06/10 05:36:33;;;;;;;;;;;;;;;;;;1478384;40;7023;-65
2021/06/10 05:37:36;;;;;;;;;;;;;;;;;;1478353;40;7052;-65
2021/06/10 05:38:38;;;;;;;;;;;;;;;;;;1479348;40;7223;-62
2021/06/10 05:39:41;;;;;;;;;;;;;;;;;;1479003;40;7111;-64
2021/06/10 05:40:43;;;;;;;;;;;;;;;;;;1479137;40;7007;-63
2021/06/10 05:41:45;;;;;;;;;;;;;;;;;;1478679;40;7923;-65
2021/06/10 05:42:48;;;;;;;;;;;;;;;;;;1478877;40;7131;-63
2021/06/10 05:43:50;;;;;;;;;;;;;;;;;;1478862;40;7044;-63
2021/06/10 05:44:53;;;;;;;;;;;;;;;;;;1479052;40;7007;-62
2021/06/10 05:45:55;;;;;;;;;;;;;;;;;;1478755;40;7044;-65
2021/06/10 05:46:58;;;;;;;;;;;;;;;;;;1479919;40;7850;-63
2021/06/10 05:48:01;;;;;;;;;;;;;;;;;;1483175;40;7004;-66
2021/06/10 05:49:03;;;;;;;;;;;;;;;;;;1483548;40;6999;-66
2021/06/10 05:50:06;;;;;;;;;;;;;;;;;;1483031;40;7109;-65
2021/06/10 05:51:09;;;;;;;;;;;;;;;;;;1479744;40;7309;-66
2021/06/10 05:52:11;;;;;;;;;;;;;;;;;;1479140;40;7003;-64
2021/06/10 05:53:17;;;;;;;;;;;;;;;;;;1479289;40;7040;-64
2021/06/10 05:54:19;;;;;;;;;;;;;;;;;;1479253;40;7027;-65
2021/06/10 05:55:21;;;;;;;;;;;;;;;;;;1479170;40;7011;-64
2021/06/10 05:56:24;;;;;;;;;;;;;;;;;;1478983;40;7017;-63
2021/06/10 05:57:26;;;;;;;;;;;;;;;;;;1479457;40;7270;-64
2021/06/10 05:58:29;;;;;;;;;;;;;;;;;;1478596;40;7934;-67
2021/06/10 05:59:31;;;;;;;;;;;;;;;;;;1479019;40;7008;-68
2021/06/10 06:00:33;;;;;;;;;;;;;;;;;;1479117;40;7116;-65
2021/06/10 06:01:36;;;;;;;;;;;;;;;;;;1478538;40;8313;-65
2021/06/10 06:02:39;;;;;;;;;;;;;;;;;;1478891;40;7021;-65
2021/06/10 06:03:42;;;;;;;;;;;;;;;;;;1479430;40;7012;-64
2021/06/10 06:04:44;;;;;;;;;;;;;;;;;;1479391;40;7047;-67
2021/06/10 06:05:47;;;;;;;;;;;;;;;;;;1479269;40;7052;-68
2021/06/10 06:06:49;;;;;;;;;;;;;;;;;;1478726;40;7007;-66
2021/06/10 06:07:52;;;;;;;;;;;;;;;;;;1479106;40;7031;-63
2021/06/10 06:08:55;;;;;;;;;;;;;;;;;;1482293;40;6995;-63
2021/06/10 06:09:58;;;;;;;;;;;;;;;;;;1482597;40;7109;-63
2021/06/10 06:11:00;;;;;;;;;;;;;;;;;;1479123;40;7035;-64
2021/06/10 06:12:04;;;;;;;;;;;;;;;;;;1478998;40;7016;-65
2021/06/10 06:13:09;;;;;;;;;;;;;;;;;;1478956;40;7000;-66
2021/06/10 06:14:13;;;;;;;;;;;;;;;;;;1483185;40;7906;-65
2021/06/10 06:15:15;;;;;;;;;;;;;;;;;;1479897;40;7059;-63
2021/06/10 06:16:19;;;;;;;;;;;;;;;;;;1479144;40;8034;-63
2021/06/10 06:17:22;;;;;;;;;;;;;;;;;;1479719;40;7237;-65
2021/06/10 06:18:27;;;;;;;;;;;;;;;;;;1483088;40;7007;-65
2021/06/10 06:19:30;;;;;;;;;;;;;;;;;;1479422;40;7007;-64
2021/06/10 06:20:33;;;;;;;;;;;;;;;;;;1478611;40;7199;-63
2021/06/10 06:21:50;;;;;;;;;;;;;;;;;;1480483;40;7943;-66
2021/06/10 06:22:53;;;;;;;;;;;;;;;;;;1481297;40;7031;-66
2021/06/10 06:23:57;;;;;;;;;;;;;;;;;;1478759;40;7003;-64
2021/06/10 06:24:59;;;;;;;;;;;;;;;;;;1478504;40;7013;-66
2021/06/10 06:26:03;;;;;;;;;;;;;;;;;;1478336;40;7932;-63
2021/06/10 06:27:05;;;;;;;;;;;;;;;;;;1478472;40;7090;-62
2021/06/10 06:28:08;;;;;;;;;;;;;;;;;;1478660;40;7035;-66
2021/06/10 06:29:11;;;;;;;;;;;;;;;;;;1478404;40;7031;-63
2021/06/10 06:30:15;;;;;;;;;;;;;;;;;;1478558;40;7012;-66
2021/06/10 06:31:21;;;;;;;;;;;;;;;;;;1478350;40;8303;-66
2021/06/10 06:32:24;;;;;;;;;;;;;;;;;;1478455;40;7008;-66
2021/06/10 06:33:26;;;;;;;;;;;;;;;;;;1478391;40;7047;-66
2021/06/10 06:34:28;;;;;;;;;;;;;;;;;;1479081;40;7115;-61
2021/06/10 06:35:31;;;;;;;;;;;;;;;;;;1478708;40;7020;-64
2021/06/10 06:36:33;;;;;;;;;;;;;;;;;;1478414;40;7366;-62
2021/06/10 06:37:39;;;;;;;;;;;;;;;;;;1477942;40;7015;-66
2021/06/10 06:38:41;;;;;;;;;;;;;;;;;;1478858;40;7225;-67
2021/06/10 06:39:44;;;;;;;;;;;;;;;;;;1478642;40;7862;-67
2021/06/10 06:40:48;;;;;;;;;;;;;;;;;;1478902;40;7049;-64
2021/06/10 06:41:51;;;;;;;;;;;;;;;;;;1478801;40;7007;-68
2021/06/10 06:42:53;;;;;;;;;;;;;;;;;;1478855;40;7074;-66
2021/06/10 06:43:56;;;;;;;;;;;;;;;;;;1478523;40;7115;-65
2021/06/10 06:44:59;;;;;;;;;;;;;;;;;;1478840;40;7151;-63
2021/06/10 06:46:03;;;;;;;;;;;;;;;;;;1478883;40;7211;-66
2021/06/10 06:47:06;;;;;;;;;;;;;;;;;;1480736;40;7016;-65
2021/06/10 06:48:09;;;;;;;;;;;;;;;;;;1482587;40;7012;-66
2021/06/10 06:49:11;;;;;;;;;;;;;;;;;;1483133;40;7436;-67
2021/06/10 06:50:14;;;;;;;;;;;;;;;;;;1482760;40;7489;-66
2021/06/10 06:51:16;;;;;;;;;;;;;;;;;;1479272;40;7011;-65
2021/06/10 06:52:19;;;;;;;;;;;;;;;;;;1478956;40;7007;-64
2021/06/10 06:53:21;;;;;;;;;;;;;;;;;;1478838;40;7964;-65
2021/06/10 06:54:24;;;;;;;;;;;;;;;;;;1478770;40;7007;-66
2021/06/10 06:55:26;;;;;;;;;;;;;;;;;;1478851;40;7118;-69
2021/06/10 06:56:29;;;;;;;;;;;;;;;;;;1478681;40;7043;-65
2021/06/10 06:57:32;;;;;;;;;;;;;;;;;;1478824;40;7012;-68
2021/06/10 06:58:34;;;;;;;;;;;;;;;;;;1478801;40;7004;-66
2021/06/10 06:59:38;;;;;;;;;;;;;;;;;;1478932;40;7198;-67
2021/06/10 07:00:40;;;;;;;;;;;;;;;;;;1478753;40;7016;-67
2021/06/10 07:01:43;;;;;;;;;;;;;;;;;;1479120;40;7003;-65
2021/06/10 07:02:46;;;;;;;;;;;;;;;;;;1478662;40;7023;-68
2021/06/10 07:03:48;;;;;;;;;;;;;;;;;;1478520;40;7039;-64
2021/06/10 07:04:51;;;;;;;;;;;;;;;;;;1477854;40;7108;-63
2021/06/10 07:05:53;;;;;;;;;;;;;;;;;;1479098;40;8814;-66
2021/06/10 07:06:55;;;;;;;;;;;;;;;;;;1478962;40;6999;-65
2021/06/10 07:07:58;;;;;;;;;;;;;;;;;;1479208;40;7675;-65
2021/06/10 07:09:00;;;;;;;;;;;;;;;;;;1478876;40;7099;-64
2021/06/10 07:10:07;;;;;;;;;;;;;;;;;;1479093;40;7031;-64
2021/06/10 07:11:09;;;;;;;;;;;;;;;;;;1478399;40;7031;-64
2021/06/10 07:12:12;;;;;;;;;;;;;;;;;;1479304;40;7046;-65
2021/06/10 07:13:14;;;;;;;;;;;;;;;;;;1478873;40;7118;-66
2021/06/10 07:14:17;;;;;;;;;;;;;;;;;;1479111;40;7122;-65
2021/06/10 07:15:19;;;;;;;;;;;;;;;;;;1479157;40;6999;-67
2021/06/10 07:16:22;;;;;;;;;;;;;;;;;;1479004;40;9755;-67
2021/06/10 07:17:25;;;;;;;;;;;;;;;;;;1479125;40;7007;-65
2021/06/10 07:18:27;;;;;;;;;;;;;;;;;;1482750;40;7962;-66
2021/06/10 07:19:29;;;;;;;;;;;;;;;;;;1479198;40;7113;-64
2021/06/10 07:20:32;;;;;;;;;;;;;;;;;;1479610;40;7027;-65
2021/06/10 07:21:48;;;;;;;;;;;;;;;;;;1480685;40;7020;-64
2021/06/10 07:23:02;;;;;;;;;;;;;;;;;;1478610;40;7008;-67